Time;durP1;ratioP1;P1;durP2;ratioP2;P2;SDS_P1;SDS_P2;PMS_P1;PMS_P2;Temp;Humidity;BMP_temperature;BMP_pressure;BME280_temperature;BME280_humidity;BME280_pressure;Samples;Min_cycle;Max_cycle;Signal;HPM_P1;HPM_P2
2021/08/06 00:01:27;;;;;;;2.17;0.43;;;13.80;99.90;;;;;;5052660;28;20572;-84
2021/08/06 00:03:55;;;;;;;3.65;0.50;;;13.80;99.90;;;;;;5053086;28;20492;-84
2021/08/06 00:06:22;;;;;;;4.45;0.60;;;13.70;99.90;;;;;;5052827;28;20024;-83
2021/08/06 00:08:48;;;;;;;2.20;0.80;;;13.70;99.90;;;;;;5052796;28;20024;-84
2021/08/06 00:11:14;;;;;;;1.95;0.70;;;13.60;99.90;;;;;;5053867;28;20025;-86
2021/08/06 00:13:39;;;;;;;2.70;0.55;;;13.60;99.90;;;;;;5052474;28;20028;-83
2021/08/06 00:16:05;;;;;;;2.22;0.55;;;13.50;99.90;;;;;;5052470;28;20120;-85
2021/08/06 00:18:31;;;;;;;3.17;0.80;;;13.50;99.90;;;;;;5052637;28;20130;-87
2021/08/06 00:20:57;;;;;;;9.07;0.88;;;13.50;99.90;;;;;;5052282;28;20025;-85
2021/08/06 00:23:22;;;;;;;3.40;0.60;;;13.50;99.90;;;;;;5052601;28;20037;-89
2021/08/06 00:25:48;;;;;;;3.55;0.70;;;13.40;99.90;;;;;;5055668;28;20021;-83
2021/08/06 00:28:14;;;;;;;4.38;1.05;;;13.40;99.90;;;;;;5056418;28;20472;-84
2021/08/06 00:30:39;;;;;;;2.60;0.68;;;13.40;99.90;;;;;;5056240;28;20124;-86
2021/08/06 00:33:05;;;;;;;4.47;1.02;;;13.40;99.90;;;;;;5056326;28;20029;-84
2021/08/06 00:35:31;;;;;;;4.80;0.80;;;13.40;99.90;;;;;;5056281;28;20028;-84
2021/08/06 00:37:57;;;;;;;3.50;0.93;;;13.30;99.90;;;;;;5056093;28;20087;-84
2021/08/06 00:40:23;;;;;;;3.85;0.70;;;13.30;99.90;;;;;;5056148;28;20056;-85
2021/08/06 00:42:50;;;;;;;5.32;0.90;;;13.30;99.90;;;;;;5056136;28;20032;-83
2021/08/06 00:45:15;;;;;;;5.20;1.45;;;13.30;99.90;;;;;;5056027;28;20116;-85
2021/08/06 00:47:42;;;;;;;4.63;1.05;;;13.20;99.90;;;;;;5056140;28;20120;-88
2021/08/06 00:50:09;;;;;;;3.60;0.90;;;13.20;99.90;;;;;;5055760;28;20025;-84
2021/08/06 00:52:36;;;;;;;5.72;0.80;;;13.30;99.90;;;;;;5055871;28;20060;-86
2021/08/06 00:55:03;;;;;;;4.25;0.65;;;13.30;99.90;;;;;;5055960;28;20021;-84
2021/08/06 00:57:29;;;;;;;5.15;1.13;;;13.30;99.90;;;;;;5055669;28;20078;-84
2021/08/06 00:59:54;;;;;;;5.35;0.90;;;13.20;99.90;;;;;;5055793;28;20103;-88
2021/08/06 01:02:23;;;;;;;4.90;0.90;;;13.20;99.90;;;;;;5055874;28;20029;-84
2021/08/06 01:05:04;;;;;;;2.63;0.80;;;13.20;99.90;;;;;;5056234;28;20025;-85
2021/08/06 01:07:45;;;;;;;3.83;0.85;;;13.10;99.90;;;;;;5055588;28;20025;-86
2021/08/06 01:10:11;;;;;;;5.00;1.10;;;13.10;99.90;;;;;;5055556;28;20039;-85
2021/08/06 01:12:54;;;;;;;2.35;0.70;;;13.10;99.90;;;;;;5055221;28;20025;-81
2021/08/06 01:15:20;;;;;;;5.72;1.00;;;13.10;99.90;;;;;;5055514;28;20021;-83
2021/08/06 01:17:47;;;;;;;5.22;1.08;;;13.10;99.90;;;;;;5055387;28;20059;-84
2021/08/06 01:20:25;;;;;;;2.28;1.10;;;13.10;99.90;;;;;;5055324;28;20446;-83
2021/08/06 01:23:10;;;;;;;2.22;1.13;;;13.10;99.90;;;;;;5055353;28;20037;-84
2021/08/06 01:25:45;;;;;;;3.42;1.00;;;13.10;99.90;;;;;;5055444;28;20017;-87
2021/08/06 01:28:17;;;;;;;3.58;1.00;;;13.10;99.90;;;;;;5056293;28;20025;-83
2021/08/06 01:30:43;;;;;;;2.40;1.13;;;13.10;99.90;;;;;;5055461;28;20036;-85
2021/08/06 01:33:11;;;;;;;3.63;1.10;;;13.10;99.90;;;;;;5055267;28;20423;-84
2021/08/06 01:35:36;;;;;;;2.08;0.93;;;13.10;99.90;;;;;;5054946;28;20094;-83
2021/08/06 01:38:02;;;;;;;1.38;0.90;;;13.20;99.90;;;;;;5056333;28;20025;-84
2021/08/06 01:40:36;;;;;;;1.65;0.90;;;13.10;99.90;;;;;;5055946;28;20069;-84
2021/08/06 01:43:20;;;;;;;2.10;1.10;;;13.10;99.90;;;;;;5054905;28;20105;-84
2021/08/06 01:45:55;;;;;;;1.75;1.00;;;13.10;99.90;;;;;;5054844;28;20067;-82
2021/08/06 01:48:27;;;;;;;4.82;1.10;;;13.10;99.90;;;;;;5055274;28;20083;-84
2021/08/06 01:50:54;;;;;;;13.70;1.08;;;13.00;99.90;;;;;;5055634;28;20068;-82
2021/08/06 01:53:22;;;;;;;5.90;0.93;;;13.00;99.90;;;;;;5054611;28;20021;-85
2021/08/06 01:55:53;;;;;;;4.32;0.80;;;13.00;99.90;;;;;;5054158;28;20498;-87
2021/08/06 01:58:20;;;;;;;3.55;0.82;;;13.00;99.90;;;;;;5054416;28;20052;-85
2021/08/06 02:00:47;;;;;;;4.18;1.38;;;13.00;99.90;;;;;;5054701;28;20050;-84
2021/08/06 02:03:14;;;;;;;3.80;1.10;;;12.90;99.90;;;;;;5054770;28;20037;-84
2021/08/06 02:05:40;;;;;;;3.40;1.15;;;12.90;99.90;;;;;;5054610;28;20074;-86
2021/08/06 02:08:09;;;;;;;4.53;1.17;;;12.90;99.90;;;;;;5054554;28;20087;-83
2021/08/06 02:10:35;;;;;;;4.45;1.20;;;12.90;99.90;;;;;;5054513;28;20031;-86
2021/08/06 02:13:02;;;;;;;2.28;1.30;;;12.80;99.90;;;;;;5054287;28;20021;-83
2021/08/06 02:15:28;;;;;;;4.05;1.10;;;12.80;99.90;;;;;;5054523;28;20119;-86
2021/08/06 02:17:55;;;;;;;1.77;1.00;;;12.80;99.90;;;;;;5054144;28;20051;-83
2021/08/06 02:20:23;;;;;;;5.18;1.30;;;12.90;99.90;;;;;;5055605;28;20028;-84
2021/08/06 02:22:51;;;;;;;6.82;1.40;;;12.80;99.90;;;;;;5054020;28;20033;-85
2021/08/06 02:25:20;;;;;;;3.45;1.20;;;12.80;99.90;;;;;;5054149;28;20361;-84
2021/08/06 02:27:46;;;;;;;1.92;1.20;;;12.70;99.90;;;;;;5054154;28;20108;-86
2021/08/06 02:30:15;;;;;;;5.32;1.35;;;12.70;99.90;;;;;;5053753;28;20028;-84
2021/08/06 02:32:41;;;;;;;4.90;1.85;;;12.70;99.90;;;;;;5054068;28;20032;-87
2021/08/06 02:35:09;;;;;;;4.50;1.80;;;12.60;99.90;;;;;;5054064;28;20031;-83
2021/08/06 02:37:38;;;;;;;8.88;1.92;;;12.60;99.90;;;;;;5054131;28;20028;-86
2021/08/06 02:40:05;;;;;;;4.88;1.40;;;12.50;99.90;;;;;;5053957;28;20032;-84
2021/08/06 02:42:34;;;;;;;3.58;1.40;;;12.50;99.90;;;;;;5053839;28;20388;-86
2021/08/06 02:45:00;;;;;;;3.10;1.42;;;12.50;99.90;;;;;;5055102;28;20024;-85
2021/08/06 02:47:26;;;;;;;2.20;1.38;;;12.50;99.90;;;;;;5053016;28;20029;-84
2021/08/06 02:49:52;;;;;;;3.58;1.48;;;12.50;99.90;;;;;;5053351;28;20029;-84
2021/08/06 02:52:17;;;;;;;4.10;1.80;;;12.50;99.90;;;;;;5054651;28;20029;-89
2021/08/06 02:54:43;;;;;;;3.95;1.52;;;12.50;99.90;;;;;;5053611;28;20120;-85
2021/08/06 02:57:09;;;;;;;8.95;1.40;;;12.50;99.90;;;;;;5053825;28;20021;-85
2021/08/06 02:59:34;;;;;;;2.53;1.42;;;12.60;99.90;;;;;;5053686;28;20112;-84
2021/08/06 03:02:00;;;;;;;5.60;1.50;;;12.50;99.90;;;;;;5053598;28;20040;-87
2021/08/06 03:04:26;;;;;;;4.28;1.90;;;12.50;99.90;;;;;;5054133;28;20021;-85
2021/08/06 03:06:51;;;;;;;5.43;1.63;;;12.50;99.90;;;;;;5054127;28;20079;-88
2021/08/06 03:09:17;;;;;;;4.25;1.67;;;12.40;99.90;;;;;;5053986;28;20021;-85
2021/08/06 03:11:43;;;;;;;6.05;1.55;;;12.50;99.90;;;;;;5054241;28;20128;-85
2021/08/06 03:14:08;;;;;;;2.30;1.50;;;12.40;99.90;;;;;;5053903;28;20119;-87
2021/08/06 03:16:34;;;;;;;3.65;1.60;;;12.50;99.90;;;;;;5053759;28;20456;-86
2021/08/06 03:19:00;;;;;;;4.53;1.67;;;12.50;99.90;;;;;;5053700;28;20451;-83
2021/08/06 03:21:26;;;;;;;5.32;2.10;;;12.50;99.90;;;;;;5053706;28;20037;-84
2021/08/06 03:23:51;;;;;;;3.40;1.50;;;12.40;99.90;;;;;;5053588;28;20031;-83
2021/08/06 03:26:18;;;;;;;5.90;2.10;;;12.40;99.90;;;;;;5053582;28;20091;-87
2021/08/06 03:28:43;;;;;;;3.25;1.48;;;12.40;99.90;;;;;;5053494;28;20021;-90
2021/08/06 03:31:09;;;;;;;5.45;1.45;;;12.30;99.90;;;;;;5053488;28;20116;-84
2021/08/06 03:33:35;;;;;;;6.18;1.42;;;12.30;99.90;;;;;;5053122;28;20025;-83
2021/08/06 03:36:00;;;;;;;2.95;1.30;;;12.30;99.90;;;;;;5053121;28;20029;-86
2021/08/06 03:38:26;;;;;;;6.72;1.70;;;13.80;99.90;;;;;;5053838;28;20480;-78
2021/08/06 03:40:53;;;;;;;3.28;1.33;;;14.30;99.90;;;;;;5053033;28;20065;-79
2021/08/06 03:43:19;;;;;;;6.05;1.42;;;14.70;99.90;;;;;;5057408;28;20491;-80
2021/08/06 03:45:45;;;;;;;3.47;0.98;;;15.40;99.90;;;;;;5052380;28;20029;-78
2021/08/06 03:48:11;;;;;;;1.25;1.10;;;15.90;99.90;;;;;;5055331;28;20025;-86
2021/08/06 03:50:37;;;;;;;5.43;1.38;;;15.90;99.90;;;;;;5057050;28;20025;-79
2021/08/06 03:53:03;;;;;;;6.35;1.70;;;15.70;99.90;;;;;;5054340;28;20021;-80
2021/08/06 03:55:29;;;;;;;5.70;3.20;;;15.60;99.90;;;;;;5051225;28;20075;-79
2021/08/06 03:57:57;;;;;;;5.53;2.95;;;16.30;99.90;;;;;;5051748;28;20029;-80
2021/08/06 04:00:25;;;;;;;5.95;2.65;;;16.60;99.90;;;;;;5054541;28;20025;-87
2021/08/06 04:02:51;;;;;;;6.40;1.90;;;16.60;99.90;;;;;;5055616;28;20029;-83
2021/08/06 04:05:17;;;;;;;8.90;1.33;;;16.30;99.90;;;;;;5057063;28;20029;-86
2021/08/06 04:07:45;;;;;;;1.80;1.00;;;16.10;99.90;;;;;;5056901;28;20024;-81
2021/08/06 04:10:16;;;;;;;4.07;1.20;;;15.70;99.90;;;;;;5057395;28;20059;-87
2021/08/06 04:12:42;;;;;;;2.20;1.00;;;15.60;99.90;;;;;;5055446;28;20070;-87
2021/08/06 04:15:08;;;;;;;8.40;1.60;;;15.10;99.90;;;;;;5055907;28;20032;-79
2021/08/06 04:17:34;;;;;;;3.05;1.42;;;15.00;99.90;;;;;;5055482;28;20089;-80
2021/08/06 04:20:00;;;;;;;4.60;1.67;;;15.30;99.90;;;;;;5055315;28;20459;-84
2021/08/06 04:22:26;;;;;;;4.70;1.98;;;15.10;99.90;;;;;;5055481;28;20124;-86
2021/08/06 04:24:52;;;;;;;6.40;2.92;;;15.20;99.90;;;;;;5055073;28;20112;-89
2021/08/06 04:27:17;;;;;;;7.15;2.83;;;15.10;99.90;;;;;;5055075;28;20102;-81
2021/08/06 04:29:43;;;;;;;8.68;4.95;;;15.10;99.90;;;;;;5056130;28;20068;-87
2021/08/06 04:32:09;;;;;;;9.27;4.10;;;15.10;99.90;;;;;;5054414;28;20538;-78
2021/08/06 04:34:34;;;;;;;4.50;2.45;;;14.70;99.90;;;;;;5055457;28;20143;-79
2021/08/06 04:37:00;;;;;;;5.28;1.65;;;15.00;99.90;;;;;;5055654;28;20108;-82
2021/08/06 04:39:26;;;;;;;5.10;1.50;;;15.00;99.90;;;;;;5055141;28;20018;-79
2021/08/06 04:41:52;;;;;;;4.43;1.83;;;15.40;99.90;;;;;;5055092;28;20037;-87
2021/08/06 04:44:18;;;;;;;4.43;1.67;;;15.50;99.90;;;;;;5055236;28;20029;-86
2021/08/06 04:46:45;;;;;;;6.13;1.77;;;15.50;99.90;;;;;;5054660;28;20066;-88
2021/08/06 04:49:11;;;;;;;5.82;1.42;;;15.30;99.90;;;;;;5054265;28;20028;-82
2021/08/06 04:51:37;;;;;;;1.77;1.20;;;15.40;99.90;;;;;;5054292;28;20096;-89
2021/08/06 04:54:04;;;;;;;2.00;1.35;;;16.10;99.90;;;;;;5055993;28;20480;-87
2021/08/06 04:56:30;;;;;;;2.05;1.25;;;16.00;99.90;;;;;;5055764;28;20033;-80
2021/08/06 04:58:55;;;;;;;2.63;1.48;;;16.00;99.90;;;;;;5054860;28;20044;-78
2021/08/06 05:01:21;;;;;;;1.98;1.30;;;16.20;99.90;;;;;;5055475;28;20368;-85
2021/08/06 05:03:46;;;;;;;2.67;1.30;;;16.30;99.90;;;;;;5056036;28;20096;-87
2021/08/06 05:06:13;;;;;;;4.30;1.40;;;16.50;99.90;;;;;;5055549;28;20024;-89
2021/08/06 05:08:42;;;;;;;2.65;1.55;;;16.60;99.90;;;;;;5054883;28;20025;-78
2021/08/06 05:11:08;;;;;;;3.17;1.25;;;16.70;99.90;;;;;;5053331;28;20125;-79
2021/08/06 05:13:34;;;;;;;3.42;1.20;;;16.40;99.90;;;;;;5055966;28;20065;-84
2021/08/06 05:15:59;;;;;;;5.50;1.40;;;16.40;99.90;;;;;;5055282;28;20483;-82
2021/08/06 05:18:25;;;;;;;2.10;1.50;;;16.50;99.90;;;;;;5055211;28;20053;-89
2021/08/06 05:20:51;;;;;;;5.68;2.03;;;16.00;99.90;;;;;;5055445;28;20021;-83
2021/08/06 05:23:16;;;;;;;3.38;1.50;;;15.60;99.90;;;;;;5055443;28;20112;-83
2021/08/06 05:25:43;;;;;;;4.07;1.90;;;15.40;99.90;;;;;;5055293;28;20468;-83
2021/08/06 05:28:09;;;;;;;6.57;2.08;;;15.30;99.90;;;;;;5055410;28;20029;-86
2021/08/06 05:30:34;;;;;;;3.25;1.80;;;15.00;99.90;;;;;;5055112;28;20075;-85
2021/08/06 05:33:00;;;;;;;4.15;1.70;;;14.90;99.90;;;;;;5054943;28;20029;-84
2021/08/06 05:35:26;;;;;;;6.63;1.85;;;14.80;99.90;;;;;;5055159;28;20017;-85
2021/08/06 05:37:53;;;;;;;3.95;1.88;;;14.70;99.90;;;;;;5055120;28;20064;-87
2021/08/06 05:40:19;;;;;;;5.40;2.03;;;14.60;99.90;;;;;;5054793;28;20021;-83
2021/08/06 05:42:45;;;;;;;4.20;1.63;;;14.50;99.90;;;;;;5055048;28;20116;-82
2021/08/06 05:45:11;;;;;;;7.55;2.20;;;14.50;99.90;;;;;;5055499;28;20021;-87
2021/08/06 05:47:54;;;;;;;5.65;1.77;;;14.50;99.90;;;;;;5054828;28;20051;-84
2021/08/06 05:50:22;;;;;;;2.97;1.75;;;14.60;99.90;;;;;;5055043;28;20021;-87
2021/08/06 05:52:48;;;;;;;4.97;1.75;;;14.80;99.90;;;;;;5055131;28;20052;-85
2021/08/06 05:55:15;;;;;;;3.15;1.65;;;14.80;99.90;;;;;;5054595;28;20029;-85
2021/08/06 05:57:41;;;;;;;2.80;1.67;;;14.90;99.90;;;;;;5054799;28;20502;-86
2021/08/06 06:00:10;;;;;;;6.28;1.73;;;15.00;99.90;;;;;;5054722;28;20120;-89
2021/08/06 06:02:36;;;;;;;4.07;1.73;;;15.20;99.90;;;;;;5054028;28;20037;-83
2021/08/06 06:05:02;;;;;;;4.20;1.75;;;15.40;99.90;;;;;;5055593;28;20025;-88
2021/08/06 06:07:27;;;;;;;6.15;1.70;;;15.60;99.90;;;;;;5054655;28;20055;-82
2021/08/06 06:09:54;;;;;;;12.02;1.92;;;15.60;99.90;;;;;;5054997;28;20024;-88
2021/08/06 06:12:20;;;;;;;2.83;1.88;;;15.50;99.90;;;;;;5053508;28;20064;-78
2021/08/06 06:14:46;;;;;;;4.15;2.22;;;16.00;99.90;;;;;;5055229;28;20053;-85
2021/08/06 06:17:11;;;;;;;3.15;1.83;;;15.90;99.90;;;;;;5052823;28;20132;-86
2021/08/06 06:19:37;;;;;;;6.30;2.38;;;15.80;99.90;;;;;;5053192;28;20396;-84
2021/08/06 06:22:04;;;;;;;4.20;1.85;;;15.80;99.90;;;;;;5052486;28;20040;-83
2021/08/06 06:24:30;;;;;;;4.70;2.03;;;15.80;99.90;;;;;;5052748;28;20063;-82
2021/08/06 06:26:56;;;;;;;6.57;2.03;;;15.80;99.90;;;;;;5052598;28;20079;-91
2021/08/06 06:29:22;;;;;;;6.35;2.80;;;15.80;99.90;;;;;;5052869;28;20059;-85
2021/08/06 06:31:48;;;;;;;6.57;3.55;;;15.80;99.90;;;;;;5053690;28;20104;-86
2021/08/06 06:34:13;;;;;;;5.97;2.70;;;15.80;99.90;;;;;;5053088;28;20134;-83
2021/08/06 06:36:39;;;;;;;9.48;2.00;;;16.40;99.90;;;;;;5054223;28;20110;-83
2021/08/06 06:39:05;;;;;;;3.88;2.20;;;16.30;99.90;;;;;;5054048;28;20480;-84
2021/08/06 06:41:31;;;;;;;3.40;2.03;;;16.10;99.90;;;;;;5053267;28;20100;-87
2021/08/06 06:43:56;;;;;;;3.70;1.90;;;16.10;99.90;;;;;;5053067;28;20053;-80
2021/08/06 06:46:22;;;;;;;4.15;1.88;;;16.10;99.90;;;;;;5054643;28;20029;-86
2021/08/06 06:48:48;;;;;;;3.38;1.95;;;16.20;99.90;;;;;;5053529;28;20043;-83
2021/08/06 06:51:13;;;;;;;4.22;2.20;;;16.30;99.90;;;;;;5052377;28;20052;-81
2021/08/06 06:53:39;;;;;;;5.25;2.20;;;16.30;99.90;;;;;;5051844;28;20094;-81
2021/08/06 06:56:05;;;;;;;3.78;1.88;;;16.50;99.90;;;;;;5053201;28;20095;-87
2021/08/06 06:58:30;;;;;;;8.95;2.33;;;16.60;99.90;;;;;;5053426;28;20419;-85
2021/08/06 07:00:57;;;;;;;6.25;2.63;;;16.80;99.90;;;;;;5053299;28;20021;-81
2021/08/06 07:03:23;;;;;;;8.50;2.45;;;16.80;99.90;;;;;;5052679;28;20033;-79
2021/08/06 07:05:49;;;;;;;5.32;2.00;;;16.90;99.90;;;;;;5053823;28;20365;-82
2021/08/06 07:08:15;;;;;;;8.40;2.00;;;17.00;99.90;;;;;;5053116;28;20032;-89
2021/08/06 07:10:40;;;;;;;7.25;1.90;;;17.00;99.90;;;;;;5053002;28;20033;-90
2021/08/06 07:13:06;;;;;;;4.35;1.98;;;17.00;99.90;;;;;;5053055;28;20063;-88
2021/08/06 07:15:32;;;;;;;5.20;1.85;;;17.00;99.90;;;;;;5053178;28;20054;-89
2021/08/06 07:17:58;;;;;;;4.47;1.77;;;17.20;99.90;;;;;;5052955;28;20056;-84
2021/08/06 07:20:24;;;;;;;5.38;1.90;;;17.40;99.90;;;;;;5053156;28;20074;-86
2021/08/06 07:22:50;;;;;;;2.60;1.70;;;17.70;99.90;;;;;;5052848;28;20033;-84
2021/08/06 07:25:17;;;;;;;3.35;1.65;;;18.00;99.90;;;;;;5053113;28;20028;-88
2021/08/06 07:27:44;;;;;;;3.20;1.50;;;18.20;99.90;;;;;;5053073;28;20563;-87
2021/08/06 07:30:10;;;;;;;3.22;1.45;;;18.40;99.90;;;;;;5053025;28;20021;-87
2021/08/06 07:32:36;;;;;;;3.28;1.35;;;18.80;99.90;;;;;;5052961;28;20029;-86
2021/08/06 07:35:02;;;;;;;6.50;1.30;;;19.10;99.90;;;;;;5053481;28;20021;-87
2021/08/06 07:37:28;;;;;;;3.42;1.50;;;19.60;99.90;;;;;;5053889;28;20039;-87
2021/08/06 07:39:54;;;;;;;1.73;0.82;;;20.00;99.90;;;;;;5053292;28;20115;-87
2021/08/06 07:42:20;;;;;;;4.43;1.20;;;20.30;97.90;;;;;;5052776;28;20033;-82
2021/08/06 07:44:46;;;;;;;1.65;1.10;;;20.60;96.80;;;;;;5053043;28;20048;-81
2021/08/06 07:47:12;;;;;;;4.10;1.25;;;20.80;95.50;;;;;;5052681;28;20047;-84
2021/08/06 07:49:40;;;;;;;3.38;1.10;;;20.80;95.20;;;;;;5052634;28;20028;-86
2021/08/06 07:52:10;;;;;;;3.35;1.10;;;20.90;95.10;;;;;;5052747;28;20073;-86
2021/08/06 07:54:36;;;;;;;1.92;1.13;;;21.10;93.40;;;;;;5052660;28;20495;-83
2021/08/06 07:57:01;;;;;;;3.25;1.20;;;21.00;92.60;;;;;;5052800;28;20055;-86
2021/08/06 07:59:27;;;;;;;3.22;1.30;;;21.20;92.90;;;;;;5053945;28;20025;-85
2021/08/06 08:01:54;;;;;;;1.52;0.95;;;21.20;91.70;;;;;;5052550;28;20032;-85
2021/08/06 08:04:19;;;;;;;3.38;0.90;;;21.40;90.20;;;;;;5052639;28;20071;-82
2021/08/06 08:06:45;;;;;;;3.47;0.98;;;21.70;90.60;;;;;;5052733;28;20025;-82
2021/08/06 08:09:11;;;;;;;3.53;1.20;;;21.90;89.70;;;;;;5052715;28;20039;-82
2021/08/06 08:11:37;;;;;;;1.30;0.80;;;22.00;88.00;;;;;;5051949;28;20052;-82
2021/08/06 08:14:02;;;;;;;1.17;0.70;;;22.10;85.30;;;;;;5052284;28;20029;-85
2021/08/06 08:16:28;;;;;;;3.10;0.80;;;22.20;86.20;;;;;;5052204;28;20025;-82
2021/08/06 08:18:54;;;;;;;1.58;0.80;;;22.30;84.90;;;;;;5052160;28;20048;-80
2021/08/06 08:21:19;;;;;;;3.10;0.70;;;22.30;84.80;;;;;;5051953;28;20036;-79
2021/08/06 08:23:45;;;;;;;2.25;0.70;;;22.50;81.70;;;;;;5053346;28;20472;-78
2021/08/06 08:26:11;;;;;;;1.92;0.70;;;22.50;83.60;;;;;;5052264;28;20053;-78
2021/08/06 08:28:37;;;;;;;3.00;0.70;;;22.60;85.70;;;;;;5051608;28;20357;-78
2021/08/06 08:31:02;;;;;;;0.93;0.50;;;22.60;83.70;;;;;;5052283;28;20021;-79
2021/08/06 08:33:28;;;;;;;4.05;0.60;;;22.60;76.70;;;;;;5050733;28;20125;-79
2021/08/06 08:35:54;;;;;;;3.00;0.70;;;22.60;77.90;;;;;;5051496;28;20021;-77
2021/08/06 08:38:20;;;;;;;0.77;0.60;;;22.70;77.20;;;;;;5052529;28;20017;-79
2021/08/06 08:40:45;;;;;;;0.63;0.57;;;22.80;75.50;;;;;;5060421;28;20029;-85
2021/08/06 08:43:11;;;;;;;1.77;0.70;;;22.90;76.30;;;;;;5052785;28;20132;-83
2021/08/06 08:45:40;;;;;;;1.23;0.52;;;23.00;76.30;;;;;;5053581;28;20406;-80
2021/08/06 08:48:08;;;;;;;6.00;0.60;;;23.10;76.50;;;;;;5058498;28;20442;-79
2021/08/06 08:50:36;;;;;;;3.20;0.65;;;23.20;80.30;;;;;;5061737;28;20069;-90
2021/08/06 08:53:03;;;;;;;2.13;0.50;;;23.10;77.90;;;;;;5062430;28;20059;-80
2021/08/06 08:55:29;;;;;;;1.27;0.63;;;23.00;77.80;;;;;;5059088;28;20021;-79
2021/08/06 08:57:54;;;;;;;2.83;0.60;;;23.00;81.40;;;;;;5058274;28;20036;-80
2021/08/06 09:00:21;;;;;;;3.90;1.00;;;23.00;79.60;;;;;;5062157;28;20028;-82
2021/08/06 09:02:47;;;;;;;3.22;0.68;;;23.10;80.40;;;;;;5055700;28;20488;-84
2021/08/06 09:05:16;;;;;;;3.25;0.68;;;23.20;82.70;;;;;;5055662;28;20029;-83
2021/08/06 09:07:43;;;;;;;1.00;0.70;;;23.30;81.40;;;;;;5055564;28;20029;-83
2021/08/06 09:10:19;;;;;;;1.33;0.80;;;23.30;84.70;;;;;;5055522;28;20479;-84
2021/08/06 09:13:05;;;;;;;2.42;0.90;;;23.40;89.10;;;;;;5055486;28;20032;-83
2021/08/06 09:15:51;;;;;;;3.95;1.20;;;23.60;89.40;;;;;;5055018;28;20033;-83
2021/08/06 09:18:31;;;;;;;3.67;0.77;;;23.70;85.30;;;;;;5055592;28;20052;-80
2021/08/06 09:21:14;;;;;;;1.38;1.00;;;23.80;85.40;;;;;;5055761;28;20483;-84
2021/08/06 09:23:51;;;;;;;1.95;0.68;;;23.90;82.90;;;;;;5056554;28;20063;-84
2021/08/06 09:26:41;;;;;;;4.53;0.98;;;24.10;82.70;;;;;;5055514;28;20023;-86
2021/08/06 09:29:22;;;;;;;2.88;1.05;;;24.30;80.80;;;;;;5055340;28;20029;-84
2021/08/06 09:31:50;;;;;;;2.95;1.00;;;24.40;79.60;;;;;;5055052;28;20083;-85
2021/08/06 09:34:18;;;;;;;2.95;0.70;;;24.50;77.60;;;;;;5055083;28;20025;-84
2021/08/06 09:36:54;;;;;;;3.22;0.73;;;24.40;74.70;;;;;;5055233;28;20063;-86
2021/08/06 09:39:21;;;;;;;1.73;0.80;;;24.40;71.90;;;;;;5054971;28;20028;-85
2021/08/06 09:41:47;;;;;;;1.75;0.68;;;24.50;72.40;;;;;;5054987;28;20043;-85
2021/08/06 09:44:25;;;;;;;0.82;0.75;;;24.70;73.10;;;;;;5055542;28;20112;-85
2021/08/06 09:46:51;;;;;;;3.03;0.60;;;24.70;71.10;;;;;;5054910;28;20432;-86
2021/08/06 09:49:18;;;;;;;2.03;0.70;;;24.70;70.70;;;;;;5054515;28;20105;-85
2021/08/06 09:51:46;;;;;;;1.38;0.80;;;24.80;69.50;;;;;;5054602;28;20021;-86
2021/08/06 09:54:20;;;;;;;0.85;0.50;;;24.80;70.80;;;;;;5054841;28;20136;-86
2021/08/06 09:56:47;;;;;;;1.33;0.70;;;24.50;68.60;;;;;;5054376;28;20115;-87
2021/08/06 09:59:24;;;;;;;1.48;0.70;;;24.50;71.60;;;;;;5054501;28;20021;-87
2021/08/06 10:02:16;;;;;;;1.77;0.80;;;24.50;68.20;;;;;;5054376;28;20036;-86
2021/08/06 10:04:44;;;;;;;1.20;0.80;;;24.60;69.60;;;;;;5054530;28;20020;-86
2021/08/06 10:07:11;;;;;;;3.00;0.68;;;24.60;71.30;;;;;;5054477;28;20025;-87
2021/08/06 10:09:37;;;;;;;1.67;1.00;;;24.60;70.30;;;;;;5054492;28;20025;-86
2021/08/06 10:12:04;;;;;;;3.30;0.88;;;24.40;69.50;;;;;;5055395;28;20021;-84
2021/08/06 10:14:33;;;;;;;0.90;0.70;;;24.60;70.10;;;;;;5054316;28;20017;-85
2021/08/06 10:16:59;;;;;;;3.63;0.70;;;24.80;67.50;;;;;;5054220;28;20497;-83
2021/08/06 10:19:25;;;;;;;1.55;0.80;;;25.00;67.00;;;;;;5054605;28;20021;-83
2021/08/06 10:21:51;;;;;;;1.90;1.05;;;25.00;65.10;;;;;;5054136;28;20052;-85
2021/08/06 10:24:17;;;;;;;0.93;0.70;;;24.90;67.70;;;;;;5054095;28;20481;-84
2021/08/06 10:26:44;;;;;;;1.10;0.77;;;24.90;67.80;;;;;;5054131;28;20021;-84
2021/08/06 10:29:11;;;;;;;1.00;0.75;;;25.00;70.60;;;;;;5053989;28;20029;-87
2021/08/06 10:31:36;;;;;;;2.15;0.80;;;25.00;72.70;;;;;;5053770;28;20029;-84
2021/08/06 10:34:08;;;;;;;0.80;0.70;;;25.00;70.20;;;;;;5053933;28;20074;-87
2021/08/06 10:36:38;;;;;;;1.33;0.90;;;25.00;70.10;;;;;;5054033;28;20029;-86
2021/08/06 10:39:04;;;;;;;1.65;1.10;;;24.80;70.00;;;;;;5053762;28;20069;-85
2021/08/06 10:41:49;;;;;;;0.80;0.70;;;24.70;70.30;;;;;;5053704;28;20025;-86
2021/08/06 10:44:15;;;;;;;0.95;0.80;;;24.60;70.90;;;;;;5053727;28;20427;-86
2021/08/06 10:46:58;;;;;;;5.93;0.80;;;24.60;71.50;;;;;;5056829;28;20025;-83
2021/08/06 10:49:29;;;;;;;1.20;0.80;;;24.60;69.20;;;;;;5056562;28;20033;-85
2021/08/06 10:52:12;;;;;;;3.67;1.05;;;24.50;70.10;;;;;;5053849;28;20103;-84
2021/08/06 10:54:38;;;;;;;1.70;0.80;;;24.40;70.10;;;;;;5053550;28;20526;-85
2021/08/06 10:57:29;;;;;;;1.75;0.80;;;24.30;69.40;;;;;;5053792;28;20029;-85
2021/08/06 10:59:55;;;;;;;0.95;0.80;;;24.30;70.10;;;;;;5053890;28;20021;-84
2021/08/06 11:02:38;;;;;;;1.90;0.98;;;24.40;73.10;;;;;;5053233;28;20055;-83
2021/08/06 11:05:28;;;;;;;1.95;1.00;;;24.60;72.00;;;;;;5053418;28;20483;-82
2021/08/06 11:07:54;;;;;;;6.07;1.20;;;25.00;72.90;;;;;;5053235;28;20118;-83
2021/08/06 11:10:52;;;;;;;4.10;1.13;;;25.20;68.50;;;;;;5052768;28;20049;-84
2021/08/06 11:13:46;;;;;;;2.60;0.98;;;25.20;67.20;;;;;;5053651;28;20079;-82
2021/08/06 11:16:13;;;;;;;3.50;0.90;;;25.10;65.80;;;;;;5044815;28;20036;-83
2021/08/06 11:18:46;;;;;;;2.20;1.20;;;25.00;67.80;;;;;;5054970;28;20052;-83
2021/08/06 11:21:12;;;;;;;1.55;1.17;;;24.80;66.60;;;;;;5054530;28;20365;-86
2021/08/06 11:23:38;;;;;;;1.50;0.98;;;24.60;67.20;;;;;;5052806;28;20132;-85
2021/08/06 11:26:08;;;;;;;1.08;0.75;;;24.50;68.90;;;;;;5040103;28;20476;-86
2021/08/06 11:28:34;;;;;;;0.90;0.70;;;24.50;67.70;;;;;;5033426;28;20025;-87
2021/08/06 11:31:01;;;;;;;1.75;1.00;;;24.40;67.10;;;;;;5037931;28;20472;-79
2021/08/06 11:33:26;;;;;;;2.88;0.70;;;24.30;67.70;;;;;;5099875;23;20205;-89
2021/08/06 11:35:52;;;;;;;2.08;0.93;;;24.40;68.90;;;;;;5093077;28;20508;-85
2021/08/06 11:38:23;;;;;;;5.50;0.93;;;24.80;70.80;;;;;;5093291;28;20020;-82
2021/08/06 11:40:57;;;;;;;2.78;0.70;;;25.10;74.00;;;;;;5094619;28;20038;-84
2021/08/06 11:43:25;;;;;;;1.42;0.90;;;25.50;72.50;;;;;;5076509;28;20414;-87
2021/08/06 11:46:10;;;;;;;0.88;0.75;;;25.80;69.20;;;;;;5073145;28;20107;-83
2021/08/06 11:48:48;;;;;;;1.65;0.93;;;26.10;66.10;;;;;;5072981;28;20024;-85
2021/08/06 11:51:14;;;;;;;1.25;0.73;;;26.10;63.50;;;;;;5073226;28;20162;-80
2021/08/06 11:53:40;;;;;;;1.15;0.73;;;26.30;61.20;;;;;;5072651;28;20048;-76
2021/08/06 11:56:15;;;;;;;1.27;0.70;;;26.40;61.30;;;;;;5073977;28;20024;-83
2021/08/06 11:58:41;;;;;;;;;;;26.30;62.80;;;;;;5078724;28;20037;-87
2021/08/06 12:01:16;;;;;;;1.23;0.77;;;26.10;62.40;;;;;;5075566;28;20014;-88
2021/08/06 12:03:44;;;;;;;3.72;0.82;;;26.10;61.90;;;;;;5076713;28;20472;-84
2021/08/06 12:06:09;;;;;;;1.92;0.85;;;26.40;63.20;;;;;;5073816;28;20031;-86
2021/08/06 12:08:35;;;;;;;1.15;0.70;;;26.40;61.50;;;;;;5073581;28;20112;-88
2021/08/06 12:11:04;;;;;;;2.15;0.80;;;26.30;62.20;;;;;;5074785;28;20024;-86
2021/08/06 12:13:30;;;;;;;1.17;0.95;;;26.30;62.10;;;;;;5075159;28;20028;-87
2021/08/06 12:16:06;;;;;;;1.58;1.00;;;26.30;61.20;;;;;;5077009;28;20671;-89
2021/08/06 12:18:33;;;;;;;3.38;0.95;;;26.20;61.80;;;;;;5080984;28;20032;-85
2021/08/06 12:21:05;;;;;;;1.15;0.80;;;26.00;65.00;;;;;;5074797;28;20027;-87
2021/08/06 12:23:31;;;;;;;2.38;0.90;;;25.70;66.40;;;;;;5077100;28;20036;-88
2021/08/06 12:26:04;;;;;;;1.65;0.93;;;25.50;72.90;;;;;;5081340;28;20004;-84
2021/08/06 12:28:30;;;;;;;4.88;1.20;;;24.90;72.60;;;;;;5082618;28;20029;-85
2021/08/06 12:31:20;;;;;;;4.75;1.40;;;23.90;81.30;;;;;;5079723;28;20384;-87
2021/08/06 12:34:06;;;;;;;6.45;2.00;;;22.80;92.30;;;;;;5081564;28;20048;-86
2021/08/06 12:36:33;;;;;;;2.42;1.65;;;22.20;98.20;;;;;;5081412;28;20017;-87
2021/08/06 12:39:12;;;;;;;2.70;1.30;;;21.90;99.90;;;;;;5081662;28;20021;-87
2021/08/06 12:41:40;;;;;;;3.10;1.63;;;22.00;99.90;;;;;;5085679;28;20028;-89
2021/08/06 12:44:18;;;;;;;2.50;1.30;;;22.00;99.90;;;;;;5087554;28;20085;-86
2021/08/06 12:47:07;;;;;;;1.83;1.30;;;22.40;99.90;;;;;;5085101;28;20031;-87
2021/08/06 12:49:47;;;;;;;3.80;1.40;;;22.70;99.90;;;;;;5077104;28;20028;-88
2021/08/06 12:52:24;;;;;;;3.60;1.40;;;22.90;99.90;;;;;;5075812;28;20027;-86
2021/08/06 12:55:11;;;;;;;5.18;1.48;;;23.20;99.90;;;;;;5076071;28;20082;-81